createdAt,value
2019-04-10T00:02:23.860Z,6.02
2019-04-10T00:04:55.776Z,6.01
2019-04-10T00:07:27.483Z,6.01
2019-04-10T00:09:59.364Z,6.00
2019-04-10T00:12:31.807Z,6.00
2019-04-10T00:15:05.088Z,6.00
2019-04-10T00:17:37.492Z,5.99
2019-04-10T00:20:09.985Z,5.99
2019-04-10T00:22:42.320Z,5.99
2019-04-10T00:25:14.899Z,5.98
2019-04-10T00:27:47.165Z,5.95
2019-04-10T00:30:18.768Z,5.92
2019-04-10T00:32:50.409Z,5.91
2019-04-10T00:35:23.322Z,5.87
2019-04-10T00:37:55.543Z,5.84
2019-04-10T00:40:27.726Z,5.81
2019-04-10T00:43:00.278Z,5.78
2019-04-10T00:45:32.112Z,5.73
2019-04-10T00:48:04.206Z,5.70
2019-04-10T00:50:36.990Z,5.66
2019-04-10T00:53:08.782Z,5.62
2019-04-10T00:55:41.463Z,5.57
2019-04-10T00:58:14.107Z,5.53
2019-04-10T01:00:45.821Z,5.49
2019-04-10T01:03:38.177Z,5.46
2019-04-10T01:06:09.921Z,5.44
2019-04-10T01:08:42.761Z,5.46
2019-04-10T01:11:15.572Z,5.46
2019-04-10T01:13:47.523Z,5.45
2019-04-10T01:16:19.604Z,5.44
2019-04-10T01:18:51.371Z,5.42
2019-04-10T01:21:23.344Z,5.42
2019-04-10T01:23:55.304Z,5.40
2019-04-10T01:26:28.249Z,5.38
2019-04-10T01:29:00.910Z,5.37
2019-04-10T01:31:32.722Z,5.35
2019-04-10T01:34:05.309Z,5.33
2019-04-10T01:36:37.510Z,5.28
2019-04-10T01:39:10.994Z,5.25
2019-04-10T01:41:43.618Z,5.21
2019-04-10T01:44:15.543Z,5.20
2019-04-10T01:46:48.625Z,5.17
2019-04-10T01:49:20.392Z,5.15
2019-04-10T01:51:52.237Z,5.14
2019-04-10T01:54:24.827Z,5.12
2019-04-10T01:56:57.667Z,5.11
2019-04-10T01:59:32.110Z,5.11
2019-04-10T02:02:10.242Z,5.11
2019-04-10T02:04:42.018Z,5.10
2019-04-10T02:07:13.951Z,5.10
2019-04-10T02:09:45.994Z,5.08
2019-04-10T02:12:18.642Z,5.06
2019-04-10T02:14:50.382Z,5.03
2019-04-10T02:17:22.449Z,5.02
2019-04-10T02:19:54.630Z,4.98
2019-04-10T02:22:28.651Z,4.97
2019-04-10T02:25:00.392Z,4.95
2019-04-10T02:27:32.199Z,4.98
2019-04-10T02:30:07.710Z,4.98
2019-04-10T02:32:41.136Z,4.99
2019-04-10T02:35:16.962Z,4.99
2019-04-10T02:37:49.539Z,4.99
2019-04-10T02:40:21.151Z,4.98
2019-04-10T02:42:54.545Z,4.96
2019-04-10T02:45:26.746Z,4.93
2019-04-10T02:48:01.481Z,4.94
2019-04-10T02:50:33.467Z,4.92
2019-04-10T02:53:05.621Z,4.91
2019-04-10T02:55:38.708Z,4.91
2019-04-10T02:58:10.555Z,4.91
2019-04-10T03:00:43.983Z,4.92
2019-04-10T03:03:16.054Z,4.92
2019-04-10T03:05:48.787Z,4.92
2019-04-10T03:08:39.550Z,4.94
2019-04-10T03:10:59.697Z,4.96
2019-04-10T03:13:28.867Z,4.99
2019-04-10T03:16:00.673Z,5.03
2019-04-10T03:18:32.767Z,5.06
2019-04-10T03:21:04.847Z,5.10
2019-04-10T03:23:37.760Z,5.16
2019-04-10T03:26:09.761Z,5.23
2019-04-10T03:28:41.540Z,5.34
2019-04-10T03:31:15.167Z,5.44
2019-04-10T03:34:09.229Z,5.53
2019-04-10T03:36:43.354Z,5.64
2019-04-10T03:39:15.415Z,5.76
2019-04-10T03:41:47.047Z,5.82
2019-04-10T03:44:18.928Z,5.88
2019-04-10T03:46:51.012Z,5.95
2019-04-10T03:49:23.885Z,6.02
2019-04-10T03:51:56.721Z,6.08
2019-04-10T03:54:28.618Z,6.15
2019-04-10T03:57:00.504Z,6.23
2019-04-10T03:59:32.683Z,6.35
2019-04-10T04:02:05.276Z,6.51
2019-04-10T04:04:37.752Z,6.61
2019-04-10T04:07:09.667Z,6.69
2019-04-10T04:09:41.917Z,6.79
2019-04-10T04:12:14.746Z,6.85
2019-04-10T04:14:46.479Z,6.85
2019-04-10T04:17:18.159Z,6.94
2019-04-10T04:19:52.545Z,7.05
2019-04-10T04:22:23.746Z,7.21
2019-04-10T04:24:55.784Z,7.35
2019-04-10T04:27:27.443Z,7.44
2019-04-10T04:29:59.714Z,7.53
2019-04-10T04:32:33.307Z,7.60
2019-04-10T04:35:05.827Z,7.70
2019-04-10T04:37:37.919Z,7.87
2019-04-10T04:40:11.254Z,8.10
2019-04-10T04:42:42.997Z,8.31
2019-04-10T04:45:14.567Z,8.50
2019-04-10T04:47:46.342Z,8.75
2019-04-10T04:50:18.296Z,9.03
2019-04-10T04:52:50.161Z,9.34
2019-04-10T04:55:22.115Z,9.54
2019-04-10T04:57:53.989Z,9.78
2019-04-10T05:00:25.821Z,9.94
2019-04-10T05:02:58.026Z,10.24
2019-04-10T05:05:29.675Z,10.45
2019-04-10T05:08:04.102Z,10.61
2019-04-10T05:10:35.707Z,10.68
2019-04-10T05:13:08.218Z,10.78
2019-04-10T05:15:40.840Z,10.98
2019-04-10T05:18:12.961Z,11.09
2019-04-10T05:20:48.525Z,11.17
2019-04-10T05:23:19.257Z,11.26
2019-04-10T05:25:51.901Z,11.32
2019-04-10T05:28:24.317Z,11.36
2019-04-10T05:30:56.868Z,11.45
2019-04-10T05:33:28.913Z,11.52
2019-04-10T05:36:01.346Z,11.68
2019-04-10T05:38:33.429Z,11.78
2019-04-10T05:41:05.352Z,11.88
2019-04-10T05:43:38.290Z,12.09
2019-04-10T05:46:10.325Z,12.23
2019-04-10T05:48:42.001Z,12.36
2019-04-10T05:51:14.969Z,12.52
2019-04-10T05:53:47.344Z,12.60
2019-04-10T05:56:20.707Z,12.75
2019-04-10T05:58:52.402Z,12.97
2019-04-10T06:01:33.317Z,13.16
2019-04-10T06:03:58.357Z,13.26
2019-04-10T06:06:30.701Z,13.43
2019-04-10T06:09:02.613Z,13.62
2019-04-10T06:11:35.377Z,13.78
2019-04-10T06:14:10.344Z,14.00
2019-04-10T06:16:42.628Z,14.06
2019-04-10T06:19:15.721Z,14.10
2019-04-10T06:21:48.199Z,14.23
2019-04-10T06:24:20.435Z,14.43
2019-04-10T06:26:52.509Z,14.51
2019-04-10T06:29:24.270Z,14.73
2019-04-10T06:31:56.886Z,14.81
2019-04-10T06:34:32.288Z,14.97
2019-04-10T06:37:04.066Z,14.98
2019-04-10T06:39:37.006Z,15.05
2019-04-10T06:42:08.910Z,15.10
2019-04-10T06:44:41.811Z,15.14
2019-04-10T06:47:16.091Z,15.29
2019-04-10T06:49:57.096Z,15.40
2019-04-10T06:52:28.838Z,15.49
2019-04-10T06:55:11.344Z,15.61
2019-04-10T06:57:50.875Z,15.77
2019-04-10T07:00:19.670Z,15.82
2019-04-10T07:02:52.704Z,15.89
2019-04-10T07:05:36.619Z,15.91
2019-04-10T07:08:09.648Z,15.99
2019-04-10T07:10:44.764Z,16.09
2019-04-10T07:13:08.540Z,16.13
2019-04-10T07:15:41.295Z,16.26
2019-04-10T07:18:15.319Z,16.37
2019-04-10T07:20:46.335Z,16.55
2019-04-10T07:23:24.205Z,16.63
2019-04-10T07:25:54.980Z,16.79
2019-04-10T07:28:27.903Z,16.79
2019-04-10T07:31:04.681Z,16.94
2019-04-10T07:33:33.350Z,17.15
2019-04-10T07:36:08.947Z,17.31
2019-04-10T07:38:39.277Z,17.45
2019-04-10T07:41:17.070Z,17.62
2019-04-10T07:43:44.798Z,17.77
2019-04-10T07:46:17.307Z,17.97
2019-04-10T07:48:50.262Z,18.08
2019-04-10T07:51:22.277Z,18.26
2019-04-10T07:53:54.107Z,18.34
2019-04-10T07:56:26.766Z,18.52
2019-04-10T07:58:59.177Z,18.63
2019-04-10T08:01:31.432Z,18.68
2019-04-10T08:04:04.151Z,18.72
2019-04-10T08:06:35.883Z,18.86
2019-04-10T08:09:08.859Z,18.99
2019-04-10T08:11:42.441Z,19.11
2019-04-10T08:14:14.853Z,19.34
2019-04-10T08:16:47.660Z,19.45
2019-04-10T08:19:19.469Z,19.53
2019-04-10T08:21:51.327Z,19.63
2019-04-10T08:24:23.776Z,19.77
2019-04-10T08:26:56.830Z,20.00
2019-04-10T08:29:28.866Z,20.23
2019-04-10T08:32:01.349Z,20.37
2019-04-10T08:34:33.622Z,20.51
2019-04-10T08:37:06.308Z,20.68
2019-04-10T08:39:44.027Z,20.75
2019-04-10T08:42:12.804Z,20.88
2019-04-10T08:44:44.614Z,21.01
2019-04-10T08:47:17.259Z,21.07
2019-04-10T08:49:49.444Z,21.07
2019-04-10T08:52:22.116Z,21.16
2019-04-10T08:54:54.274Z,21.12
2019-04-10T08:57:26.009Z,21.14
2019-04-10T09:00:00.345Z,21.07
2019-04-10T09:02:32.332Z,20.98
2019-04-10T09:05:06.752Z,21.12
2019-04-10T09:07:38.211Z,21.34
2019-04-10T09:10:10.457Z,21.31
2019-04-10T09:12:43.024Z,21.29
2019-04-10T09:15:15.938Z,21.21
2019-04-10T09:17:47.958Z,21.26
2019-04-10T09:20:19.958Z,21.25
2019-04-10T09:23:14.422Z,21.26
2019-04-10T09:25:25.417Z,21.38
2019-04-10T09:27:57.978Z,21.53
2019-04-10T09:30:30.907Z,21.64
2019-04-10T09:33:15.486Z,21.69
2019-04-10T09:35:36.346Z,21.75
2019-04-10T09:38:10.490Z,21.84
2019-04-10T09:40:44.638Z,22.01
2019-04-10T09:43:18.789Z,22.15
2019-04-10T09:45:51.507Z,22.47
2019-04-10T09:48:24.250Z,22.91
2019-04-10T09:50:56.180Z,23.17
2019-04-10T09:53:28.746Z,23.39
2019-04-10T09:56:00.982Z,23.46
2019-04-10T09:58:33.962Z,23.60
2019-04-10T10:01:11.313Z,23.93
2019-04-10T10:03:44.394Z,23.92
2019-04-10T10:06:25.239Z,24.02
2019-04-10T10:08:50.220Z,23.87
2019-04-10T10:11:22.914Z,23.97
2019-04-10T10:13:54.468Z,24.22
2019-04-10T10:16:27.206Z,24.26
2019-04-10T10:18:59.524Z,24.34
2019-04-10T10:21:32.462Z,24.50
2019-04-10T10:24:04.762Z,24.55
2019-04-10T10:26:36.559Z,24.67
2019-04-10T10:29:09.261Z,24.60
2019-04-10T10:31:41.292Z,24.65
2019-04-10T10:34:14.298Z,24.70
2019-04-10T10:36:48.929Z,24.66
2019-04-10T10:39:21.115Z,24.60
2019-04-10T10:41:54.481Z,24.54
2019-04-10T10:44:27.988Z,24.55
2019-04-10T10:47:00.043Z,24.44
2019-04-10T10:49:32.717Z,24.36
2019-04-10T10:52:04.774Z,24.30
2019-04-10T10:54:36.985Z,24.19
2019-04-10T10:57:09.022Z,24.23
2019-04-10T10:59:41.788Z,24.43
2019-04-10T11:02:13.698Z,24.29
2019-04-10T11:04:45.829Z,24.37
2019-04-10T11:07:18.740Z,24.31
2019-04-10T11:09:50.668Z,24.39
2019-04-10T11:12:22.404Z,24.53
2019-04-10T11:14:54.418Z,24.77
2019-04-10T11:17:28.194Z,24.97
2019-04-10T11:20:02.174Z,25.31
2019-04-10T11:22:35.501Z,25.53
2019-04-10T11:25:08.063Z,25.63
2019-04-10T11:27:41.842Z,25.69
2019-04-10T11:30:16.003Z,25.72
2019-04-10T11:32:48.739Z,25.85
2019-04-10T11:35:21.812Z,25.87
2019-04-10T11:37:58.772Z,25.89
2019-04-10T11:40:27.999Z,25.72
2019-04-10T11:43:04.765Z,25.74
2019-04-10T11:45:41.299Z,25.80
2019-04-10T11:48:08.169Z,25.83
2019-04-10T11:50:43.889Z,25.73
2019-04-10T11:53:14.558Z,25.69
2019-04-10T11:55:51.000Z,25.73
2019-04-10T11:58:21.730Z,25.75
2019-04-10T12:00:57.364Z,25.86
2019-04-10T12:03:27.212Z,25.91
2019-04-10T12:05:59.755Z,26.00
2019-04-10T12:08:55.317Z,25.70
2019-04-10T12:13:36.612Z,25.10
2019-04-10T12:16:09.204Z,25.12
2019-04-10T12:18:41.166Z,25.26
2019-04-10T12:21:13.533Z,25.39
2019-04-10T12:23:45.383Z,25.57
2019-04-10T12:26:17.912Z,25.59
2019-04-10T12:28:49.996Z,25.66
2019-04-10T12:31:21.907Z,25.84
2019-04-10T12:33:54.821Z,25.88
2019-04-10T12:36:26.754Z,25.77
2019-04-10T12:38:58.803Z,25.64
2019-04-10T12:41:31.105Z,25.40
2019-04-10T12:44:02.855Z,25.38
2019-04-10T12:46:35.163Z,25.48
2019-04-10T12:49:07.916Z,25.56
2019-04-10T12:51:39.863Z,25.47
2019-04-10T12:54:12.150Z,25.43
2019-04-10T12:56:43.995Z,25.22
2019-04-10T12:59:16.059Z,25.14
2019-04-10T13:01:49.072Z,24.91
2019-04-10T13:04:22.078Z,24.68
2019-04-10T13:06:54.790Z,24.58
2019-04-10T13:09:26.806Z,24.46
2019-04-10T13:11:58.844Z,24.45
2019-04-10T13:14:30.809Z,24.41
2019-04-10T13:17:02.948Z,24.17
2019-04-10T13:19:35.722Z,24.03
2019-04-10T13:22:07.647Z,23.87
2019-04-10T13:24:39.694Z,23.85
2019-04-10T13:27:12.581Z,23.93
2019-04-10T13:29:44.677Z,24.12
2019-04-10T13:32:18.286Z,24.29
2019-04-10T13:34:51.271Z,24.50
2019-04-10T13:37:24.106Z,24.69
2019-04-10T13:39:57.075Z,24.78
2019-04-10T13:42:30.212Z,24.92
2019-04-10T13:45:02.847Z,24.94
2019-04-10T13:47:34.795Z,24.91
2019-04-10T13:50:08.615Z,24.76
2019-04-10T13:52:42.639Z,24.65
2019-04-10T13:55:14.983Z,24.51
2019-04-10T13:57:46.840Z,24.41
2019-04-10T14:00:39.635Z,24.36
2019-04-10T14:03:10.176Z,24.27
2019-04-10T14:05:43.320Z,24.16
2019-04-10T14:08:16.566Z,24.03
2019-04-10T14:10:48.922Z,23.94
2019-04-10T14:13:21.870Z,24.05
2019-04-10T14:15:53.957Z,24.27
2019-04-10T14:18:26.240Z,24.46
2019-04-10T14:20:58.107Z,24.47
2019-04-10T14:23:31.375Z,24.32
2019-04-10T14:26:04.666Z,24.09
2019-04-10T14:28:37.515Z,23.75
2019-04-10T14:31:13.936Z,23.53
2019-04-10T14:33:46.890Z,23.27
2019-04-10T14:36:18.662Z,22.97
2019-04-10T14:38:51.570Z,22.64
2019-04-10T14:41:24.779Z,22.22
2019-04-10T14:43:57.837Z,21.77
2019-04-10T14:46:29.454Z,21.41
2019-04-10T14:49:01.467Z,21.11
2019-04-10T14:51:34.385Z,20.84
2019-04-10T14:54:06.526Z,20.63
2019-04-10T14:56:38.571Z,20.45
2019-04-10T14:59:11.487Z,20.32
2019-04-10T15:01:44.221Z,20.20
2019-04-10T15:04:17.280Z,20.10
2019-04-10T15:06:50.085Z,20.05
2019-04-10T15:09:25.913Z,20.05
2019-04-10T15:11:57.307Z,19.97
2019-04-10T15:14:32.495Z,19.89
2019-04-10T15:17:04.852Z,19.70
2019-04-10T15:19:37.447Z,19.59
2019-04-10T15:22:09.568Z,19.33
2019-04-10T15:24:41.353Z,19.16
2019-04-10T15:27:13.448Z,18.99
2019-04-10T15:29:45.593Z,18.85
2019-04-10T15:32:17.659Z,18.74
2019-04-10T15:34:49.519Z,18.63
2019-04-10T15:37:21.467Z,18.56
2019-04-10T15:39:53.931Z,18.41
2019-04-10T15:42:25.938Z,18.31
2019-04-10T15:44:58.729Z,18.24
2019-04-10T15:47:31.578Z,18.18
2019-04-10T15:50:04.131Z,18.14
2019-04-10T15:52:37.566Z,18.08
2019-04-10T15:55:11.185Z,18.03
2019-04-10T15:57:50.666Z,17.96
2019-04-10T16:00:17.019Z,17.92
2019-04-10T16:02:48.957Z,17.92
2019-04-10T16:05:21.633Z,17.91
2019-04-10T16:07:53.547Z,17.87
2019-04-10T16:10:30.749Z,17.80
2019-04-10T16:13:04.343Z,17.74
2019-04-10T16:15:38.779Z,17.64
2019-04-10T16:18:13.900Z,17.59
2019-04-10T16:20:47.464Z,17.61
2019-04-10T16:23:28.871Z,17.56
2019-04-10T16:26:00.985Z,17.58
2019-04-10T16:28:33.580Z,17.52
2019-04-10T16:31:05.610Z,17.52
2019-04-10T16:33:37.554Z,17.47
2019-04-10T16:36:10.534Z,17.41
2019-04-10T16:38:42.510Z,17.41
2019-04-10T16:41:14.401Z,17.35
2019-04-10T16:43:46.753Z,17.28
2019-04-10T16:46:20.307Z,17.22
2019-04-10T16:48:52.555Z,17.16
2019-04-10T16:51:24.491Z,17.15
2019-04-10T16:53:56.905Z,17.08
2019-04-10T16:56:29.824Z,17.00
2019-04-10T16:59:02.511Z,16.94
2019-04-10T17:01:35.039Z,16.86
2019-04-10T17:04:09.012Z,16.77
2019-04-10T17:06:42.085Z,16.67
2019-04-10T17:09:16.579Z,16.57
2019-04-10T17:11:49.342Z,16.48
2019-04-10T17:14:22.231Z,16.42
2019-04-10T17:16:55.678Z,16.38
2019-04-10T17:19:27.250Z,16.34
2019-04-10T17:22:00.532Z,16.28
2019-04-10T17:24:33.488Z,16.21
2019-04-10T17:27:06.378Z,16.10
2019-04-10T17:29:39.033Z,15.98
2019-04-10T17:32:11.338Z,15.87
2019-04-10T17:34:43.238Z,15.74
2019-04-10T17:37:15.882Z,15.65
2019-04-10T17:39:47.656Z,15.58
2019-04-10T17:42:20.026Z,15.48
2019-04-10T17:44:52.217Z,15.42
2019-04-10T17:47:25.040Z,15.33
2019-04-10T17:49:58.029Z,15.25
2019-04-10T17:52:32.575Z,15.18
2019-04-10T17:55:03.661Z,15.12
2019-04-10T17:57:40.420Z,15.03
2019-04-10T18:00:23.004Z,14.96
2019-04-10T18:02:59.031Z,14.89
2019-04-10T18:05:32.815Z,14.85
2019-04-10T18:08:05.145Z,14.79
2019-04-10T18:10:44.751Z,14.80
2019-04-10T18:13:11.518Z,14.79
2019-04-10T18:15:44.180Z,14.85
2019-04-10T18:18:16.226Z,14.86
2019-04-10T18:20:49.525Z,14.91
2019-04-10T18:23:21.547Z,14.96
2019-04-10T18:25:54.153Z,14.95
2019-04-10T18:28:25.791Z,14.97
2019-04-10T18:30:58.622Z,14.94
2019-04-10T18:33:30.905Z,14.92
2019-04-10T18:36:07.044Z,14.90
2019-04-10T18:38:38.989Z,14.89
2019-04-10T18:41:11.876Z,14.79
2019-04-10T18:43:46.619Z,14.78
2019-04-10T18:46:20.804Z,14.77
2019-04-10T18:48:51.847Z,14.75
2019-04-10T18:51:23.705Z,14.71
2019-04-10T18:53:55.788Z,14.69
2019-04-10T18:56:38.672Z,14.67
2019-04-10T18:59:30.428Z,14.64
2019-04-10T19:02:13.733Z,14.60
2019-04-10T19:04:53.307Z,14.59
2019-04-10T19:07:30.168Z,14.54
2019-04-10T19:10:02.328Z,14.51
2019-04-10T19:12:34.812Z,14.49
2019-04-10T19:15:09.145Z,14.46
2019-04-10T19:17:41.956Z,14.43
2019-04-10T19:20:15.650Z,14.39
2019-04-10T19:22:48.690Z,14.37
2019-04-10T19:25:24.972Z,14.35
2019-04-10T19:27:58.592Z,14.33
2019-04-10T19:30:45.654Z,14.29
2019-04-10T19:33:18.363Z,14.31
2019-04-10T19:35:51.372Z,14.31
2019-04-10T19:38:23.322Z,14.28
2019-04-10T19:40:56.257Z,14.24
2019-04-10T19:43:30.033Z,14.22
2019-04-10T19:46:01.474Z,14.18
2019-04-10T19:48:33.258Z,14.13
2019-04-10T19:51:05.918Z,14.13
2019-04-10T19:53:37.870Z,14.09
2019-04-10T19:56:10.927Z,14.08
2019-04-10T19:58:44.093Z,14.08
2019-04-10T20:01:17.030Z,14.10
2019-04-10T20:03:50.042Z,14.05
2019-04-10T20:06:23.563Z,14.02
2019-04-10T20:08:55.818Z,14.00
2019-04-10T20:11:37.840Z,13.95
2019-04-10T20:14:01.692Z,13.93
2019-04-10T20:16:33.852Z,13.81
2019-04-10T20:19:05.623Z,13.72
2019-04-10T20:21:37.470Z,13.66
2019-04-10T20:24:10.410Z,13.59
2019-04-10T20:26:43.397Z,13.53
2019-04-10T20:29:17.050Z,13.48
2019-04-10T20:31:50.550Z,13.40
2019-04-10T20:34:23.277Z,13.33
2019-04-10T20:36:55.902Z,13.21
2019-04-10T20:39:28.072Z,13.09
2019-04-10T20:42:00.891Z,13.02
2019-04-10T20:44:32.759Z,13.03
2019-04-10T20:47:04.780Z,12.98
2019-04-10T20:49:36.652Z,12.93
2019-04-10T20:52:08.625Z,13.01
2019-04-10T20:54:41.223Z,12.96
2019-04-10T20:57:13.145Z,12.91
2019-04-10T20:59:45.023Z,12.84
2019-04-10T21:02:18.078Z,12.79
2019-04-10T21:04:58.910Z,12.73
2019-04-10T21:07:23.765Z,12.66
2019-04-10T21:09:56.609Z,12.59
2019-04-10T21:12:28.511Z,12.52
2019-04-10T21:15:01.375Z,12.45
2019-04-10T21:17:34.119Z,12.41
2019-04-10T21:20:09.809Z,12.40
2019-04-10T21:22:47.335Z,12.38
2019-04-10T21:25:23.282Z,12.46
2019-04-10T21:27:56.666Z,12.50
2019-04-10T21:30:34.001Z,12.51
2019-04-10T21:33:24.710Z,12.50
2019-04-10T21:35:57.519Z,12.50
2019-04-10T21:38:30.264Z,12.49
2019-04-10T21:41:05.748Z,12.47
2019-04-10T21:43:37.255Z,12.44
2019-04-10T21:46:10.241Z,12.46
2019-04-10T21:48:48.801Z,12.47
2019-04-10T21:51:21.186Z,12.49
2019-04-10T21:53:53.823Z,12.50
2019-04-10T21:56:26.647Z,12.51
2019-04-10T21:58:59.125Z,12.52
2019-04-10T22:01:32.524Z,12.52
2019-04-10T22:04:06.341Z,12.53
2019-04-10T22:06:39.970Z,12.52
2019-04-10T22:09:13.237Z,12.51
2019-04-10T22:11:51.605Z,12.53
2019-04-10T22:14:23.765Z,12.52
2019-04-10T22:16:55.809Z,12.52
2019-04-10T22:19:28.449Z,12.53
2019-04-10T22:22:00.578Z,12.50
2019-04-10T22:24:32.240Z,12.49
2019-04-10T22:27:07.138Z,12.46
2019-04-10T22:29:39.009Z,12.43
2019-04-10T22:32:11.205Z,12.41
2019-04-10T22:34:44.213Z,12.40
2019-04-10T22:37:16.931Z,12.40
2019-04-10T22:39:49.037Z,12.46
2019-04-10T22:42:33.895Z,12.41
2019-04-10T22:44:54.704Z,12.39
2019-04-10T22:47:27.452Z,12.36
2019-04-10T22:50:00.626Z,12.34
2019-04-10T22:52:36.974Z,12.31
2019-04-10T22:55:09.188Z,12.31
2019-04-10T22:57:41.683Z,12.31
2019-04-10T23:00:16.577Z,12.29
2019-04-10T23:02:48.588Z,12.29
2019-04-10T23:05:22.645Z,12.28
2019-04-10T23:07:55.577Z,12.34
2019-04-10T23:10:27.442Z,12.30
2019-04-10T23:13:04.225Z,12.28
2019-04-10T23:15:33.603Z,12.24
2019-04-10T23:18:05.595Z,12.21
2019-04-10T23:20:37.290Z,12.17
2019-04-10T23:23:09.121Z,12.12
2019-04-10T23:25:40.978Z,12.07
2019-04-10T23:28:13.527Z,12.03
2019-04-10T23:30:45.411Z,12.01
2019-04-10T23:33:17.616Z,12.01
2019-04-10T23:35:49.686Z,12.01
2019-04-10T23:38:21.713Z,11.99
2019-04-10T23:40:53.693Z,11.99
2019-04-10T23:43:25.445Z,11.99
2019-04-10T23:45:57.851Z,11.99
2019-04-10T23:48:30.881Z,11.99
2019-04-10T23:51:02.860Z,11.98
2019-04-10T23:53:36.285Z,11.98
2019-04-10T23:56:08.211Z,12.00
2019-04-10T23:58:40.231Z,12.01
